createdAt,value
2023-08-08T00:26:49.506Z,80.9
2023-08-08T00:55:31.317Z,81.5
2023-08-08T01:24:15.930Z,83.24
2023-08-08T01:52:55.650Z,84.02
2023-08-08T02:21:38.713Z,86.04
2023-08-08T02:50:25.253Z,87.29
2023-08-08T03:47:41.740Z,87.39
2023-08-08T04:16:27.854Z,87.39
2023-08-08T04:44:50.079Z,88.72
2023-08-08T05:13:46.078Z,88.25
2023-08-08T05:42:26.543Z,85.95
2023-08-08T06:10:52.341Z,81.57
2023-08-08T06:39:40.913Z,78.66
2023-08-08T07:08:53.759Z,40.13
2023-08-08T07:37:42.425Z,54.18
2023-08-08T08:06:08.828Z,57.22
2023-08-08T08:34:34.843Z,56.23
2023-08-08T09:03:29.253Z,54.14
2023-08-08T09:32:12.414Z,51.44
2023-08-08T10:00:32.732Z,51.88
2023-08-08T10:29:12.784Z,48.43
2023-08-08T10:57:56.348Z,49.65
2023-08-08T11:26:28.189Z,48.27
2023-08-08T11:54:53.103Z,48.62
2023-08-08T12:23:32.723Z,50.47
2023-08-08T12:51:49.772Z,49.56
2023-08-08T13:20:28.213Z,51.19
2023-08-08T15:43:43.348Z,48.1
2023-08-08T16:12:13.860Z,49.39
2023-08-08T16:40:44.123Z,49.36
2023-08-08T17:09:22.166Z,50.54
2023-08-08T17:37:52.594Z,54.3
2023-08-08T18:06:14.380Z,55.47
2023-08-08T18:34:40.727Z,57.51
2023-08-08T19:03:19.015Z,60.74
2023-08-08T19:31:49.710Z,62.45
2023-08-08T20:00:25.592Z,63.78
2023-08-08T20:29:04.133Z,66.38
2023-08-08T20:57:45.449Z,67.32
2023-08-08T21:26:40.948Z,66.11
2023-08-08T21:55:00.693Z,65.26
2023-08-08T22:23:37.169Z,65.38
2023-08-08T22:52:31.759Z,66.23
2023-08-08T23:21:24.168Z,71.84
2023-08-08T23:50:01.281Z,74.1
